RJDK(METAR)
05/24 14:00
METAR RJDK 240500Z AUTO 20007KT 160V250 9999 NCD 23/19 Q1015 RMK
A2998=
戻る
トップページへ戻る
IMOC Co,.Ltd.